Neubrandenburg Airport

EDBN · Mecklenburg-Vorpommern, Deutschland

METAR-Geschichte EDBN · Flughafen Neubrandenburg Trollenhagen

Unten siehst du die METARs der letzten paar Tage. Wähle ein Jahr, um ältere METARs ab dem Jahr 2007 zu durchsuchen.

18. Juni 2024

Uhrzeit Code Wetter Temp. Sichtweite Wolkendecke Wind METAR/SPECI
16:20
V
21 °C 10 km+ - 050° 050° 8 kt METAR EDAH 181420Z 05008KT 020V080 9999 FEW036 21/15 Q1015
15:50
V
21 °C 10 km+ - 060° 060° 9 kt METAR EDAH 181350Z 06009KT 020V080 CAVOK 21/15 Q1015
15:20
V
22 °C 10 km+ - 040° 040° 5 kt METAR EDAH 181320Z 04005KT 350V090 9999 FEW038 22/15 Q1015
14:50
V
21 °C 10 km+ - 030° 030° 6 kt METAR EDAH 181250Z 03006KT 350V070 9999 FEW039 21/15 Q1015
14:20
V
21 °C 10 km+ - 030° 030° 7 kt METAR EDAH 181220Z 03007KT 350V070 9999 SCT032 21/14 Q1015
13:50
V
21 °C 10 km+ - 040° 040° 4 kt METAR EDAH 181150Z 04004KT 350V090 9999 SCT035 SCT049 21/15 Q1015
13:20
V
23 °C 10 km+ - Var Var 4 kt METAR EDAH 181120Z VRB04KT 9999 FEW031 23/15 Q1015
12:50
V
21 °C 10 km+ - 050° 050° 6 kt METAR EDAH 181050Z 05006KT 360V080 9999 FEW037 21/15 Q1016
12:20
V
22 °C 10 km+ - 200° 200° 8 kt METAR EDAH 181020Z 20008KT 170V230 9999 FEW031 22/15 Q1016
11:50
V
21 °C 10 km+ - 200° 200° 7 kt METAR EDAH 180950Z 20007KT 170V230 9999 SCT034 21/14 Q1016
11:20
V
21 °C 10 km+ - 210° 210° 8 kt METAR EDAH 180920Z 21008KT 190V250 CAVOK 21/15 Q1016
10:50
V
21 °C 10 km+ - 220° 220° 9 kt METAR EDAH 180850Z 22009KT 9999 FEW026 21/15 Q1016
10:20
V
20 °C 10 km+ - 210° 210° 8 kt METAR EDAH 180820Z 21008KT 9999 FEW023 20/15 Q1016
09:50
V
19 °C 10 km+ - Var Var 4 kt METAR EDAH 180750Z VRB04KT 9999 FEW021 SCT035 19/16 Q1015
09:20
V
19 °C 10 km+ - 270° 270° 5 kt METAR EDAH 180720Z 27005KT 230V320 9999 FEW014 19/15 Q1015
08:50
V
19 °C 10 km+ - 260° 260° 5 kt METAR EDAH 180650Z 26005KT CAVOK 19/16 Q1015
08:20
V
18 °C 10 km+ - 260° 260° 4 kt METAR EDAH 180620Z AUTO 26004KT 230V310 9999 // NCD 18/15 Q1015
07:50
V
17 °C 10 km+ - 250° 250° 7 kt METAR EDAH 180550Z AUTO 25007KT 9999 // SCT073/// 17/15 Q1015
07:20
V
17 °C 10 km+ - 250° 250° 7 kt METAR EDAH 180520Z AUTO 25007KT 9999 // FEW086/// 17/15 Q1015
06:50
V
17 °C 10 km+ 8.700 ft 250° 250° 5 kt METAR EDAH 180450Z AUTO 25005KT 9999 // BKN087/// 17/15 Q1014
06:20
V
16 °C 10 km+ 8.700 ft 250° 250° 6 kt METAR EDAH 180420Z AUTO 25006KT 9999 // OVC087/// 16/14 Q1014
05:50
V
16 °C 10 km+ 8.700 ft 240° 240° 7 kt METAR EDAH 180350Z AUTO 24007KT 9999 // OVC087/// 16/15 Q1014
05:20
V
15 °C 10 km+ 9.200 ft 280° 280° 4 kt METAR EDAH 180320Z AUTO 28004KT 9999 // OVC092/// 15/14 Q1014
04:50
V
15 °C 10 km+ 9.300 ft 290° 290° 4 kt METAR EDAH 180250Z AUTO 29004KT 9999 // BKN093/// 15/14 Q1014
04:20
V
16 °C 10 km+ - 250° 250° 7 kt METAR EDAH 180220Z AUTO 25007KT 9999 // FEW094/// 16/14 Q1014
03:50
V
16 °C 10 km+ - 240° 240° 8 kt METAR EDAH 180150Z AUTO 24008KT 9999 // NCD 16/15 Q1014
03:20
V
16 °C 10 km+ - 220° 220° 5 kt METAR EDAH 180120Z AUTO 22005KT 9999 // NCD 16/15 Q1013
02:50
V
16 °C 10 km+ - 210° 210° 5 kt METAR EDAH 180050Z AUTO 21005KT 9999 // NCD 16/15 Q1014
02:20
V
16 °C 10 km+ - 200° 200° 5 kt METAR EDAH 180020Z AUTO 20005KT 9999 // FEW240/// 16/15 Q1014
01:50
V
16 °C 10 km+ 24.000 ft 210° 210° 5 kt METAR EDAH 172350Z AUTO 21005KT 9999 // FEW064/// BKN240/// 16/15 Q1014
01:20
V
15 °C 10 km+ - Var Var 2 kt METAR EDAH 172320Z AUTO VRB02KT 9999 // FEW240/// 15/14 Q1014
00:50
V
15 °C 10 km+ - Var Var 1 kt METAR EDAH 172250Z AUTO VRB01KT 9999 // SCT110/// 15/14 Q1014
00:20
V
16 °C 10 km+ 9.300 ft 180° 180° 3 kt METAR EDAH 172220Z AUTO 18003KT 9999 // BKN093/// 16/15 Q1014

17. Juni 2024

Uhrzeit Code Wetter Temp. Sichtweite Wolkendecke Wind METAR/SPECI
23:50
V
17 °C 10 km+ 9.800 ft 170° 170° 4 kt METAR EDAH 172150Z AUTO 17004KT 9999 // OVC098/// 17/15 Q1013
23:20
V
17 °C 10 km+ 10.000 ft 170° 170° 4 kt METAR EDAH 172120Z AUTO 17004KT 9999 // OVC100/// 17/16 Q1013
22:50
V
17 °C 10 km+ 9.800 ft 210° 210° 3 kt METAR EDAH 172050Z AUTO 21003KT 170V330 9999 // BKN098/// OVC140/// 17/16 Q1013
22:20
V
17 °C 10 km+ 7.200 ft 180° 180° 5 kt METAR EDAH 172020Z AUTO 18005KT 9999 // OVC072/// 17/16 Q1013
21:50
V
17 °C 10 km+ 11.000 ft 200° 200° 4 kt METAR EDAH 171950Z AUTO 20004KT 9999 // SCT070/// OVC110/// 17/16 Q1013
21:20
V
17 °C 10 km+ 12.000 ft 140° 140° 3 kt METAR EDAH 171920Z AUTO 14003KT 100V170 9999 // BKN120/// OVC160/// 17/16 Q1013
20:50
V
17 °C 10 km+ 16.000 ft 120° 120° 3 kt METAR EDAH 171850Z AUTO 12003KT 9999 // OVC160/// 17/15 Q1012
20:20
V
17 °C 10 km+ 23.000 ft 100° 100° 3 kt METAR EDAH 171820Z AUTO 10003KT 9999 // SCT170/// BKN230/// 17/15 Q1012
19:50
V
18 °C 10 km+ - 100° 100° 4 kt METAR EDAH 171750Z AUTO 10004KT 9999 // FEW091/// SCT240/// 18/15 Q1012
19:20
V
19 °C 10 km+ - 060° 060° 6 kt METAR EDAH 171720Z AUTO 06006KT 020V100 9999 // FEW096/// 19/14 Q1012
18:50
V
19 °C 10 km+ - 050° 050° 7 kt METAR EDAH 171650Z 05007KT CAVOK 19/14 Q1013
18:20
V
18 °C 10 km+ 4.900 ft 030° 030° 7 kt METAR EDAH 171620Z 03007KT 360V070 9999 FEW039 BKN049 18/15 Q1013 RETS
17:50
V
16 °C 10 km+ 7.500 ft 360° 360° 9 kt METAR EDAH 171550Z 36009KT 330V040 9999 -TSRA FEW025 BKN075CB 16/13 Q1012 RERA
17:20
V
21 °C 10 km+ 4.300 ft 300° 300° 10 kt METAR EDAH 171520Z 30010KT 260V320 9999 TSRA FEW025 BKN043CB 21/14 Q1012
16:50
V
23 °C 10 km+ - 260° 260° 6 kt METAR EDAH 171450Z 26006KT CAVOK 23/13 Q1011
16:20
V
22 °C 10 km+ - 260° 260° 4 kt METAR EDAH 171420Z 26004KT 200V320 CAVOK 22/14 Q1011
15:50
V
21 °C 10 km+ - 320° 320° 6 kt METAR EDAH 171350Z 32006KT 280V360 CAVOK 21/14 Q1011
15:20
V
20 °C 10 km+ - 330° 330° 6 kt METAR EDAH 171320Z 33006KT 270V360 CAVOK 20/16 Q1011
14:50
V
18 °C 10 km+ 4.900 ft 290° 290° 13 - 24 kt METAR EDAH 171250Z 29013G24KT 260V320 9999 FEW026 OVC049 18/15 Q1011 RESHRA
14:20
V
23 °C 10 km+ - 270° 270° 7 kt METAR EDAH 171220Z 27007KT 230V290 9999 SCT040 23/11 Q1011
13:50
V
24 °C 10 km+ - 240° 240° 8 kt METAR EDAH 171150Z 24008KT 200V270 9999 FEW045 24/12 Q1011
13:20
V
22 °C 10 km+ - 220° 220° 7 kt METAR EDAH 171120Z 22007KT 190V270 9999 SCT044 22/13 Q1011
12:50
V
24 °C 10 km+ - 220° 220° 5 kt METAR EDAH 171050Z 22005KT 170V270 CAVOK 24/11 Q1011
12:20
V
22 °C 10 km+ - 220° 220° 3 kt METAR EDAH 171020Z 22003KT 130V250 CAVOK 22/12 Q1011
11:50
V
22 °C 10 km+ - 180° 180° 5 kt METAR EDAH 170950Z 18005KT 160V230 CAVOK 22/11 Q1011
11:20
V
23 °C 10 km+ - 180° 180° 5 kt METAR EDAH 170920Z 18005KT 150V220 CAVOK 23/11 Q1011
10:50
V
23 °C 10 km+ - 200° 200° 3 kt METAR EDAH 170850Z 20003KT 130V250 CAVOK 23/12 Q1011
10:20
V
21 °C 10 km+ - 170° 170° 4 kt METAR EDAH 170820Z 17004KT 130V200 CAVOK 21/12 Q1011
09:50
V
21 °C 10 km+ - 150° 150° 5 kt METAR EDAH 170750Z 15005KT CAVOK 21/13 Q1011
09:20
V
20 °C 10 km+ - 160° 160° 6 kt METAR EDAH 170720Z 16006KT CAVOK 20/14 Q1011
08:50
V
19 °C 10 km+ - 180° 180° 4 kt METAR EDAH 170650Z 18004KT CAVOK 19/14 Q1011
08:20
V
19 °C 10 km+ - 150° 150° 3 kt METAR EDAH 170620Z 15003KT CAVOK 19/15 Q1011
07:50
V
19 °C 10 km+ - 170° 170° 3 kt METAR EDAH 170550Z 17003KT 130V190 CAVOK 19/15 Q1011
07:20
V
18 °C 10 km+ - 150° 150° 3 kt METAR EDAH 170520Z 15003KT CAVOK 18/15 Q1011
06:50
V
18 °C 10 km+ 8.900 ft 130° 130° 3 kt METAR EDAH 170450Z AUTO 13003KT 090V150 9999 // BKN089/// 18/15 Q1011
06:20
V
16 °C 10 km+ 9.100 ft 100° 100° 4 kt METAR EDAH 170420Z AUTO 10004KT 9999 // BKN091/// 16/14 Q1011
05:50
V
14 °C 10 km+ - 100° 100° 2 kt METAR EDAH 170350Z AUTO 10002KT 9999 // FEW090/// 14/13 Q1011
05:20
V
14 °C 10 km+ - Var Var 1 kt METAR EDAH 170320Z AUTO VRB01KT 9999 // SCT099/// 14/12 Q1011
04:50
V
14 °C 10 km+ 9.900 ft Var Var 1 kt METAR EDAH 170250Z AUTO VRB01KT 9999 // SCT083/// BKN099/// 14/12 Q1010
04:20
V
14 °C 10 km+ - 360° 360° 0 kt METAR EDAH 170220Z AUTO 00000KT 9999 // FEW064/// SCT100/// 14/12 Q1010
03:50
V
15 °C 10 km+ 8.900 ft Var Var 2 kt METAR EDAH 170150Z AUTO VRB02KT 9999 // FEW063/// OVC089/// 15/13 Q1010
03:20
V
15 °C 10 km+ 10.000 ft Var Var 1 kt METAR EDAH 170120Z AUTO VRB01KT 9999 // FEW083/// OVC100/// 15/13 Q1010
02:50
V
15 °C 10 km+ 8.100 ft 100° 100° 3 kt METAR EDAH 170050Z AUTO 10003KT 060V120 9999 // BKN081/// OVC097/// 15/13 Q1010
02:20
V
17 °C 10 km+ 7.000 ft Var Var 1 kt METAR EDAH 170020Z AUTO VRB01KT 9999 // OVC070/// 17/13 Q1010
01:50
V
17 °C 10 km+ 8.700 ft 250° 250° 6 kt METAR EDAH 162350Z AUTO 25006KT 9999 // BKN087/// OVC100/// 17/13 Q1010
01:20
V
18 °C 10 km+ 10.000 ft 130° 130° 3 kt METAR EDAH 162320Z AUTO 13003KT 100V170 9999 // OVC100/// 18/13 Q1010
00:50
V
18 °C 10 km+ 11.000 ft Var Var 2 kt METAR EDAH 162250Z AUTO VRB02KT 9999 // SCT096/// OVC110/// 18/12 Q1010
00:20
V
17 °C 10 km+ 11.000 ft 140° 140° 4 kt METAR EDAH 162220Z AUTO 14004KT 9999 // OVC110/// 17/12 Q1010

16. Juni 2024

Uhrzeit Code Wetter Temp. Sichtweite Wolkendecke Wind METAR/SPECI
23:50
V
16 °C 10 km+ 12.000 ft 120° 120° 4 kt METAR EDAH 162150Z AUTO 12004KT 9999 // FEW099/// OVC120/// 16/12 Q1010
23:20
V
16 °C 10 km+ 21.000 ft 140° 140° 3 kt METAR EDAH 162120Z AUTO 14003KT 9999 // FEW100/// BKN210/// 16/13 Q1010
22:50
V
15 °C 10 km+ 22.000 ft 110° 110° 4 kt METAR EDAH 162050Z AUTO 11004KT 9999 // SCT100/// BKN220/// 15/12 Q1010
22:20
V
16 °C 10 km+ 10.000 ft Var Var 2 kt METAR EDAH 162020Z AUTO VRB02KT 9999 // BKN100/// 16/12 Q1010
21:50
V
16 °C 10 km+ 11.000 ft 080° 080° 2 kt METAR EDAH 161950Z AUTO 08002KT 9999 // BKN110/// 16/12 Q1009
21:20
V
18 °C 10 km+ 10.000 ft 060° 060° 2 kt METAR EDAH 161920Z AUTO 06002KT 9999 // BKN100/// 18/12 Q1009
20:50
V
19 °C 10 km+ 10.000 ft 040° 040° 3 kt METAR EDAH 161850Z AUTO 04003KT 020V080 9999 // SCT076/// BKN100/// 19/13 Q1009
20:20
V
19 °C 10 km+ 8.000 ft 350° 350° 3 kt METAR EDAH 161820Z AUTO 35003KT 9999 // BKN080/// OVC100/// 19/12 Q1009
19:50
V
19 °C 10 km+ 8.400 ft 330° 330° 3 kt METAR EDAH 161750Z AUTO 33003KT 290V010 9999 // BKN084/// OVC095/// 19/11 Q1009
19:20
V
19 °C 10 km+ 9.100 ft 340° 340° 4 kt METAR EDAH 161720Z AUTO 34004KT 290V010 9999 // FEW058/// OVC091/// 19/12 Q1009
18:50
V
20 °C 10 km+ - 250° 250° 11 kt METAR EDAH 161650Z 25011KT 9999 -RA NSC 20/12 Q1009
18:20
V
22 °C 10 km+ - 110° 110° 4 kt METAR EDAH 161620Z 11004KT CAVOK 22/09 Q1008
17:50
V
23 °C 10 km+ - 100° 100° 6 kt METAR EDAH 161550Z 10006KT CAVOK 23/09 Q1008
17:20
V
23 °C 10 km+ - 130° 130° 5 kt METAR EDAH 161520Z 13005KT 100V190 CAVOK 23/08 Q1009
16:50
V
23 °C 10 km+ - 130° 130° 4 kt METAR EDAH 161450Z 13004KT 100V170 CAVOK 23/08 Q1009
16:20
V
23 °C 10 km+ - 180° 180° 5 kt METAR EDAH 161420Z 18005KT 150V210 CAVOK 23/07 Q1009
15:50
V
23 °C 10 km+ - 180° 180° 5 kt METAR EDAH 161350Z 18005KT CAVOK 23/09 Q1009
15:20
V
23 °C 10 km+ - 190° 190° 4 kt METAR EDAH 161320Z 19004KT 160V230 CAVOK 23/09 Q1009
14:50
V
23 °C 10 km+ - 220° 220° 6 kt METAR EDAH 161250Z 22006KT 180V270 CAVOK 23/07 Q1009
14:20
V
23 °C 10 km+ - 210° 210° 7 kt METAR EDAH 161220Z 21007KT 180V250 CAVOK 23/08 Q1009
13:50
V
22 °C 10 km+ - 220° 220° 8 kt METAR EDAH 161150Z 22008KT CAVOK 22/09 Q1009
13:20
V
21 °C 10 km+ - 230° 230° 9 kt METAR EDAH 161120Z 23009KT CAVOK 21/08 Q1009
12:50
V
23 °C 10 km+ - 210° 210° 9 kt METAR EDAH 161050Z 21009KT CAVOK 23/08 Q1010
12:20
V
22 °C 10 km+ - 190° 190° 8 kt METAR EDAH 161020Z 19008KT CAVOK 22/09 Q1010
11:50
V
22 °C 10 km+ - 200° 200° 9 kt METAR EDAH 160950Z 20009KT 160V220 CAVOK 22/08 Q1010
11:20
V
22 °C 10 km+ - 190° 190° 6 kt METAR EDAH 160920Z 19006KT 160V220 CAVOK 22/11 Q1010
10:50
V
20 °C 10 km+ - 160° 160° 6 kt METAR EDAH 160850Z 16006KT 130V190 CAVOK 20/14 Q1010
10:20
V
20 °C 10 km+ - 140° 140° 8 kt METAR EDAH 160820Z 14008KT CAVOK 20/15 Q1010
09:50
V
19 °C 10 km+ - 130° 130° 9 kt METAR EDAH 160750Z 13009KT CAVOK 19/16 Q1010
09:20
V
19 °C 10 km+ - 130° 130° 10 kt METAR EDAH 160720Z 13010KT CAVOK 19/16 Q1010
08:50
V
18 °C 10 km+ - 120° 120° 8 kt METAR EDAH 160650Z 12008KT CAVOK 18/14 Q1010
08:20
V
17 °C 10 km+ - 120° 120° 9 kt METAR EDAH 160620Z AUTO 12009KT 9999 // NCD 17/14 Q1010
07:50
V
17 °C 10 km+ - 120° 120° 9 kt METAR EDAH 160550Z AUTO 12009KT 9999 // NCD 17/14 Q1010
Eine Änderung melden